Quincy, Washington
Current Conditions -  °F | °C
As of 7:53 PM on Sunday 25 Jan 2015 (Local Time) from KEPH Reporting Station
Overcast Overcast  
Wind Chill: 32°   Ceiling: 400
Heat Index: 39°   Visibility: 10mi
Dew Point: 37°   Wind: 12mph
Humidity: 93%   Direction: 310°NW
Pressure: 30.16"   Gusts: NA
Location:  47.23°N, 119.85°W
Report Text: KEPH 260353Z AUTO 31010KT 10SM OVC004 04/03 A3016 RMK AO2 SLP226 T00390028
Loading
Personal Weather Stations






























Interactive Weather Map New forecast layout! Learn more

10-Day Weather Forecast

Advertisements
Track Severe Weather on mobile